createdAt,value
2023-01-28T00:01:27.424Z,11.87
2023-01-28T00:03:52.328Z,13.27
2023-01-28T00:06:16.778Z,14.63
2023-01-28T00:08:40.266Z,11.83
2023-01-28T00:11:05.801Z,13.07
2023-01-28T00:13:29.473Z,13.00
2023-01-28T00:15:57.375Z,13.18
2023-01-28T00:18:22.432Z,12.82
2023-01-28T00:20:45.679Z,13.20
2023-01-28T00:23:09.083Z,15.60
2023-01-28T00:25:32.778Z,13.48
2023-01-28T00:27:56.031Z,12.00
2023-01-28T00:30:20.781Z,15.77
2023-01-28T00:32:44.611Z,13.47
2023-01-28T00:35:11.583Z,13.53
2023-01-28T00:37:38.155Z,12.37
2023-01-28T00:40:01.467Z,14.00
2023-01-28T00:42:25.241Z,12.73
2023-01-28T00:44:48.607Z,12.88
2023-01-28T00:47:11.888Z,12.30
2023-01-28T00:49:35.250Z,13.95
2023-01-28T00:52:00.014Z,12.10
2023-01-28T00:54:23.267Z,14.25
2023-01-28T00:56:46.526Z,15.63
2023-01-28T00:59:09.822Z,14.67
2023-01-28T01:01:33.217Z,15.82
2023-01-28T01:04:02.910Z,15.50
2023-01-28T01:06:27.248Z,15.03
2023-01-28T01:08:52.338Z,16.23
2023-01-28T01:11:15.626Z,17.13
2023-01-28T01:13:39.329Z,16.93
2023-01-28T01:16:04.840Z,18.80
2023-01-28T01:18:28.092Z,17.03
2023-01-28T01:20:53.085Z,17.90
2023-01-28T01:23:16.343Z,16.90
2023-01-28T01:25:41.431Z,16.23
2023-01-28T01:28:05.024Z,18.75
2023-01-28T01:30:28.723Z,15.87
2023-01-28T01:32:52.751Z,17.27
2023-01-28T01:35:16.536Z,17.53
2023-01-28T01:37:40.055Z,15.93
2023-01-28T01:40:04.931Z,16.23
2023-01-28T01:42:29.719Z,17.80
2023-01-28T01:45:02.407Z,18.55
2023-01-28T01:47:31.056Z,17.13
2023-01-28T01:49:54.935Z,18.42
2023-01-28T01:52:24.024Z,19.80
2023-01-28T01:54:54.045Z,24.27
2023-01-28T01:57:24.284Z,27.60
2023-01-28T01:59:49.426Z,26.93
2023-01-28T02:02:13.928Z,23.23
2023-01-28T02:04:41.117Z,23.20
2023-01-28T02:07:05.149Z,25.17
2023-01-28T02:09:30.860Z,24.65
2023-01-28T02:11:57.003Z,23.60
2023-01-28T02:14:30.510Z,20.03
2023-01-28T02:16:56.345Z,18.60
2023-01-28T02:19:23.650Z,19.40
2023-01-28T02:22:10.311Z,15.43
2023-01-28T02:25:09.044Z,16.00
2023-01-28T02:27:39.162Z,11.77
2023-01-28T02:30:12.127Z,12.60
2023-01-28T02:32:41.823Z,11.13
2023-01-28T02:35:14.164Z,9.50
2023-01-28T02:37:43.178Z,10.57
2023-01-28T02:40:13.675Z,10.57
2023-01-28T02:42:39.937Z,10.67
2023-01-28T02:45:05.624Z,8.97
2023-01-28T02:47:46.780Z,8.50
2023-01-28T02:50:14.598Z,9.00
2023-01-28T02:53:09.612Z,7.73
2023-01-28T02:55:40.312Z,8.50
2023-01-28T02:58:11.283Z,9.10
2023-01-28T03:00:48.203Z,10.07
2023-01-28T03:03:19.953Z,10.87
2023-01-28T03:06:03.688Z,11.32
2023-01-28T03:08:44.804Z,12.50
2023-01-28T03:11:25.568Z,14.70
2023-01-28T03:14:07.159Z,12.37
2023-01-28T03:16:52.374Z,10.93
2023-01-28T03:19:33.661Z,10.50
2023-01-28T03:22:16.664Z,11.83
2023-01-28T03:25:02.817Z,10.77
2023-01-28T03:27:52.095Z,10.57
2023-01-28T03:30:39.930Z,11.83
2023-01-28T03:33:27.904Z,12.93
2023-01-28T03:36:08.802Z,13.07
2023-01-28T03:38:34.071Z,14.77
2023-01-28T03:41:00.778Z,12.87
2023-01-28T03:43:25.108Z,14.87
2023-01-28T03:45:51.385Z,14.13
2023-01-28T03:48:16.304Z,11.23
2023-01-28T03:50:39.787Z,12.23
2023-01-28T03:53:13.496Z,10.23
2023-01-28T03:55:42.156Z,11.87
2023-01-28T03:58:06.103Z,12.33
2023-01-28T04:00:32.746Z,12.93
2023-01-28T04:02:56.184Z,12.60
2023-01-28T04:05:22.668Z,15.27
2023-01-28T04:07:46.523Z,13.37
2023-01-28T04:10:31.888Z,12.93
2023-01-28T04:13:06.410Z,13.70
2023-01-28T04:15:31.009Z,14.50
2023-01-28T04:17:54.641Z,11.83
2023-01-28T04:20:24.187Z,14.87
2023-01-28T04:22:47.454Z,14.20
2023-01-28T04:25:12.637Z,13.30
2023-01-28T04:27:36.176Z,15.97
2023-01-28T04:30:10.746Z,10.87
2023-01-28T04:32:37.348Z,11.93
2023-01-28T04:35:28.360Z,11.30
2023-01-28T04:37:58.616Z,10.63
2023-01-28T04:40:27.308Z,15.43
2023-01-28T04:42:59.452Z,12.23
2023-01-28T04:45:41.772Z,12.53
2023-01-28T04:48:18.626Z,15.70
2023-01-28T04:51:01.029Z,13.37
2023-01-28T04:53:34.245Z,12.07
2023-01-28T04:56:03.701Z,12.97
2023-01-28T04:58:29.352Z,14.60
2023-01-28T05:00:57.960Z,15.00
2023-01-28T05:03:21.865Z,17.23
2023-01-28T05:05:45.238Z,18.10
2023-01-28T05:08:39.157Z,25.27
2023-01-28T05:11:02.694Z,23.23
2023-01-28T05:13:26.179Z,25.03
2023-01-28T05:15:53.980Z,21.97
2023-01-28T05:18:17.680Z,21.93
2023-01-28T05:20:47.233Z,19.57
2023-01-28T05:23:10.707Z,20.63
2023-01-28T05:25:47.283Z,22.70
2023-01-28T05:28:10.594Z,21.00
2023-01-28T05:30:33.905Z,19.57
2023-01-28T05:32:58.107Z,21.33
2023-01-28T05:35:21.731Z,23.47
2023-01-28T05:37:44.998Z,28.50
2023-01-28T05:40:11.250Z,25.53
2023-01-28T05:42:35.882Z,25.37
2023-01-28T05:45:16.837Z,25.10
2023-01-28T05:47:58.448Z,25.90
2023-01-28T05:51:00.164Z,22.07
2023-01-28T05:53:30.070Z,25.97
2023-01-28T05:55:54.808Z,24.30
2023-01-28T05:58:20.360Z,24.37
2023-01-28T06:00:43.760Z,23.97
2023-01-28T06:03:07.231Z,23.37
2023-01-28T06:05:32.241Z,25.57
2023-01-28T06:07:57.496Z,25.00
2023-01-28T06:10:20.864Z,25.20
2023-01-28T06:12:44.659Z,26.03
2023-01-28T06:15:27.928Z,29.60
2023-01-28T06:18:17.140Z,24.00
2023-01-28T06:20:40.762Z,25.93
2023-01-28T06:23:04.006Z,27.13
2023-01-28T06:25:27.303Z,23.47
2023-01-28T06:27:51.322Z,24.07
2023-01-28T06:30:15.501Z,22.07
2023-01-28T06:32:40.835Z,25.03
2023-01-28T06:35:04.422Z,22.53
2023-01-28T06:37:27.825Z,26.60
2023-01-28T06:39:51.609Z,25.53
2023-01-28T06:42:14.819Z,27.67
2023-01-28T06:44:38.306Z,27.07
2023-01-28T06:47:01.477Z,27.00
2023-01-28T06:49:26.157Z,26.07
2023-01-28T06:51:49.744Z,23.40
2023-01-28T06:54:13.001Z,34.17
2023-01-28T06:56:36.313Z,31.97
2023-01-28T06:58:59.573Z,22.90
2023-01-28T07:01:22.927Z,24.20
2023-01-28T07:03:46.303Z,30.37
2023-01-28T07:06:11.051Z,26.60
2023-01-28T07:08:34.384Z,24.93
2023-01-28T07:10:57.799Z,29.20
2023-01-28T07:13:21.297Z,27.20
2023-01-28T07:15:44.719Z,24.30
2023-01-28T07:18:07.935Z,23.00
2023-01-28T07:20:32.452Z,24.53
2023-01-28T07:22:57.287Z,27.07
2023-01-28T07:25:20.872Z,29.60
2023-01-28T07:27:49.379Z,30.80
2023-01-28T07:30:14.420Z,33.40
2023-01-28T07:32:38.016Z,35.60
2023-01-28T07:35:01.350Z,37.53
2023-01-28T07:37:24.703Z,39.33
2023-01-28T07:39:49.589Z,34.30
2023-01-28T07:42:12.877Z,34.40
2023-01-28T07:44:42.702Z,39.63
2023-01-28T07:47:07.301Z,39.60
2023-01-28T07:49:30.904Z,32.17
2023-01-28T07:51:54.635Z,33.30
2023-01-28T07:54:18.088Z,39.53
2023-01-28T07:56:42.750Z,45.40
2023-01-28T07:59:06.167Z,48.70
2023-01-28T08:01:29.659Z,51.87
2023-01-28T08:03:53.158Z,47.80
2023-01-28T08:06:16.470Z,40.13
2023-01-28T08:08:39.775Z,40.87
2023-01-28T08:11:09.511Z,45.87
2023-01-28T08:13:34.207Z,42.80
2023-01-28T08:15:57.636Z,45.20
2023-01-28T08:18:20.985Z,43.30
2023-01-28T08:20:47.249Z,43.93
2023-01-28T08:23:13.498Z,43.90
2023-01-28T08:25:37.704Z,42.67
2023-01-28T08:28:01.022Z,53.03
2023-01-28T08:30:25.752Z,42.20
2023-01-28T08:32:49.210Z,43.20
2023-01-28T08:35:12.431Z,38.67
2023-01-28T08:37:35.736Z,40.70
2023-01-28T08:39:58.993Z,41.93
2023-01-28T08:42:22.207Z,38.87
2023-01-28T08:44:45.620Z,37.47
2023-01-28T08:47:10.281Z,34.33
2023-01-28T08:49:33.619Z,38.73
2023-01-28T08:51:56.886Z,36.67
2023-01-28T08:54:20.153Z,35.17
2023-01-28T08:56:44.856Z,31.63
2023-01-28T08:59:08.281Z,33.80
2023-01-28T09:01:31.560Z,32.67
2023-01-28T09:03:56.263Z,32.93
2023-01-28T09:06:19.587Z,33.50
2023-01-28T09:08:42.880Z,30.83
2023-01-28T09:11:06.358Z,34.77
2023-01-28T09:13:30.093Z,34.70
2023-01-28T09:15:53.854Z,28.20
2023-01-28T09:18:17.107Z,27.60
2023-01-28T09:20:42.633Z,33.57
2023-01-28T09:23:06.379Z,28.30
2023-01-28T09:25:30.117Z,30.20
2023-01-28T09:27:53.490Z,28.63
2023-01-28T09:30:17.741Z,27.37
2023-01-28T09:32:41.268Z,26.87
2023-01-28T09:35:05.060Z,40.60
2023-01-28T09:37:29.926Z,29.73
2023-01-28T09:39:53.495Z,35.37
2023-01-28T09:42:33.987Z,33.50
2023-01-28T09:45:07.433Z,31.67
2023-01-28T09:47:37.214Z,29.80
2023-01-28T09:50:04.414Z,33.33
2023-01-28T09:52:32.173Z,31.13
2023-01-28T09:55:02.135Z,32.40
2023-01-28T09:57:28.226Z,27.17
2023-01-28T09:59:51.806Z,31.53
2023-01-28T10:02:32.379Z,31.73
2023-01-28T10:05:07.056Z,31.50
2023-01-28T10:07:41.135Z,34.97
2023-01-28T10:10:13.687Z,36.97
2023-01-28T10:13:17.256Z,40.37
2023-01-28T10:15:59.418Z,39.73
2023-01-28T10:18:34.617Z,42.77
2023-01-28T10:21:08.315Z,43.07
2023-01-28T10:23:45.453Z,46.77
2023-01-28T10:26:23.930Z,46.50
2023-01-28T10:28:54.025Z,42.07
2023-01-28T10:31:17.324Z,37.27
2023-01-28T10:33:40.664Z,39.63
2023-01-28T10:36:05.629Z,38.33
2023-01-28T10:38:31.879Z,35.77
2023-01-28T10:41:01.650Z,34.13
2023-01-28T10:43:28.128Z,30.13
2023-01-28T10:45:59.843Z,33.43
2023-01-28T10:48:26.499Z,29.73
2023-01-28T10:50:57.004Z,29.93
2023-01-28T10:53:20.878Z,31.23
2023-01-28T10:55:52.503Z,35.20
2023-01-28T10:58:21.238Z,31.10
2023-01-28T11:00:44.732Z,33.63
2023-01-28T11:03:18.372Z,35.70
2023-01-28T11:05:52.910Z,34.67
2023-01-28T11:08:18.075Z,33.70
2023-01-28T11:10:42.636Z,32.80
2023-01-28T11:13:17.833Z,35.40
2023-01-28T11:15:48.804Z,38.30
2023-01-28T11:18:20.373Z,33.33
2023-01-28T11:20:51.709Z,38.37
2023-01-28T11:23:23.820Z,35.00
2023-01-28T11:25:47.110Z,35.17
2023-01-28T11:28:20.577Z,33.07
2023-01-28T11:30:44.157Z,31.73
2023-01-28T11:33:17.310Z,32.47
2023-01-28T11:35:40.636Z,30.63
2023-01-28T11:38:04.020Z,29.87
2023-01-28T11:40:28.077Z,31.00
2023-01-28T11:42:53.419Z,31.00
2023-01-28T11:45:21.799Z,30.63
2023-01-28T11:48:04.558Z,29.90
2023-01-28T11:50:39.753Z,34.93
2023-01-28T11:53:21.630Z,32.13
2023-01-28T11:56:15.059Z,30.83
2023-01-28T11:58:50.036Z,33.93
2023-01-28T12:01:23.452Z,36.80
2023-01-28T12:04:14.391Z,32.67
2023-01-28T12:06:58.339Z,31.37
2023-01-28T12:09:32.021Z,31.63
2023-01-28T12:12:13.479Z,31.07
2023-01-28T12:14:55.977Z,32.10
2023-01-28T12:17:34.263Z,33.17
2023-01-28T12:20:09.791Z,34.07
2023-01-28T12:22:58.412Z,35.70
2023-01-28T12:25:37.813Z,32.67
2023-01-28T12:28:10.620Z,32.60
2023-01-28T12:30:55.705Z,34.97
2023-01-28T12:33:49.312Z,33.67
2023-01-28T12:36:29.772Z,32.97
2023-01-28T12:39:06.069Z,36.87
2023-01-28T12:41:36.123Z,90.33
2023-01-28T12:44:03.930Z,73.20
2023-01-28T12:46:38.359Z,49.07
2023-01-28T12:49:08.084Z,39.80
2023-01-28T12:51:40.897Z,35.03
2023-01-28T12:54:13.789Z,39.63
2023-01-28T12:56:42.151Z,41.43
2023-01-28T12:59:12.676Z,40.43
2023-01-28T13:01:43.890Z,36.80
2023-01-28T13:04:15.448Z,38.10
2023-01-28T13:06:44.555Z,38.20
2023-01-28T13:09:18.994Z,38.77
2023-01-28T13:11:42.837Z,35.73
2023-01-28T13:14:06.925Z,37.30
2023-01-28T13:16:37.273Z,32.50
2023-01-28T13:19:23.514Z,33.37
2023-01-28T13:21:49.966Z,34.60
2023-01-28T13:24:32.964Z,36.27
2023-01-28T13:26:57.575Z,37.03
2023-01-28T13:29:33.099Z,38.27
2023-01-28T13:31:59.929Z,36.90
2023-01-28T13:34:37.678Z,44.67
2023-01-28T13:37:06.119Z,45.10
2023-01-28T13:39:31.260Z,42.30
2023-01-28T13:41:57.495Z,39.90
2023-01-28T13:44:28.691Z,39.60
2023-01-28T13:46:52.431Z,46.80
2023-01-28T13:49:23.065Z,47.33
2023-01-28T13:51:59.820Z,48.33
2023-01-28T13:54:24.398Z,44.37
2023-01-28T13:57:10.394Z,42.37
2023-01-28T13:59:49.329Z,41.93
2023-01-28T14:02:49.843Z,38.77
2023-01-28T14:05:53.784Z,41.83
2023-01-28T14:08:59.113Z,46.33
2023-01-28T14:12:06.932Z,45.97
2023-01-28T14:15:07.535Z,49.03
2023-01-28T14:17:43.420Z,45.97
2023-01-28T14:20:16.525Z,50.07
2023-01-28T14:22:43.339Z,49.53
2023-01-28T14:25:14.523Z,47.10
2023-01-28T14:27:44.757Z,48.63
2023-01-28T14:30:19.196Z,51.77
2023-01-28T14:32:47.868Z,45.20
2023-01-28T14:35:18.192Z,51.47
2023-01-28T14:37:42.722Z,48.40
2023-01-28T14:40:14.048Z,51.33
2023-01-28T14:42:41.884Z,51.20
2023-01-28T14:45:23.845Z,50.13
2023-01-28T14:48:12.475Z,51.60
2023-01-28T14:51:00.460Z,52.20
2023-01-28T14:53:54.431Z,48.90
2023-01-28T14:56:33.458Z,49.27
2023-01-28T14:59:04.217Z,52.40
2023-01-28T15:01:29.653Z,49.30
2023-01-28T15:03:54.174Z,52.07
2023-01-28T15:06:21.568Z,51.17
2023-01-28T15:08:45.076Z,55.03
2023-01-28T15:11:11.520Z,50.60
2023-01-28T15:13:42.067Z,47.73
2023-01-28T15:16:08.370Z,50.43
2023-01-28T15:18:36.373Z,51.03
2023-01-28T15:21:00.851Z,47.90
2023-01-28T15:23:38.075Z,53.10
2023-01-28T15:26:05.904Z,45.30
2023-01-28T15:28:32.136Z,48.97
2023-01-28T15:30:57.005Z,47.97
2023-01-28T15:33:23.490Z,49.97
2023-01-28T15:35:50.515Z,49.23
2023-01-28T15:38:13.872Z,48.73
2023-01-28T15:40:44.437Z,51.87
2023-01-28T15:43:07.944Z,53.97
2023-01-28T15:45:34.423Z,51.67
2023-01-28T15:48:08.907Z,55.83
2023-01-28T15:50:32.334Z,58.23
2023-01-28T15:52:56.310Z,53.87
2023-01-28T15:55:41.339Z,55.23
2023-01-28T15:58:21.483Z,57.37
2023-01-28T16:00:44.871Z,57.80
2023-01-28T16:03:11.414Z,56.23
2023-01-28T16:05:38.692Z,55.37
2023-01-28T16:08:08.493Z,52.80
2023-01-28T16:10:32.510Z,52.80
2023-01-28T16:13:05.233Z,62.40
2023-01-28T16:15:28.670Z,51.57
2023-01-28T16:17:53.295Z,60.43
2023-01-28T16:20:24.199Z,56.73
2023-01-28T16:22:49.677Z,50.27
2023-01-28T16:25:30.084Z,57.97
2023-01-28T16:27:53.630Z,56.27
2023-01-28T16:30:18.415Z,51.93
2023-01-28T16:32:42.573Z,56.33
2023-01-28T16:35:15.765Z,64.20
2023-01-28T16:37:41.792Z,61.80
2023-01-28T16:40:07.360Z,58.70
2023-01-28T16:42:32.740Z,59.77
2023-01-28T16:44:56.092Z,57.10
2023-01-28T16:47:19.479Z,59.50
2023-01-28T16:49:42.802Z,57.20
2023-01-28T16:52:07.250Z,63.90
2023-01-28T16:54:32.500Z,60.23
2023-01-28T16:56:57.161Z,57.27
2023-01-28T16:59:20.612Z,64.33
2023-01-28T17:01:44.433Z,65.87
2023-01-28T17:04:12.068Z,60.97
2023-01-28T17:06:37.732Z,65.00
2023-01-28T17:09:00.956Z,66.73
2023-01-28T17:11:29.779Z,63.73
2023-01-28T17:13:52.981Z,64.30
2023-01-28T17:16:16.250Z,60.90
2023-01-28T17:18:40.000Z,64.17
2023-01-28T17:21:04.496Z,61.00
2023-01-28T17:23:27.817Z,64.53
2023-01-28T17:25:51.703Z,61.67
2023-01-28T17:28:16.818Z,60.67
2023-01-28T17:30:41.708Z,67.27
2023-01-28T17:33:05.704Z,65.03
2023-01-28T17:35:30.866Z,62.30
2023-01-28T17:37:54.464Z,64.13
2023-01-28T17:40:18.777Z,63.23
2023-01-28T17:42:42.052Z,63.20
2023-01-28T17:45:07.738Z,59.63
2023-01-28T17:47:31.825Z,68.53
2023-01-28T17:49:56.853Z,64.40
2023-01-28T17:52:20.209Z,62.70
2023-01-28T17:54:43.488Z,66.57
2023-01-28T17:57:06.722Z,61.00
2023-01-28T17:59:30.209Z,66.13
2023-01-28T18:01:55.495Z,63.13
2023-01-28T18:04:18.830Z,60.13
2023-01-28T18:06:42.240Z,56.33
2023-01-28T18:09:07.091Z,64.30
2023-01-28T18:11:32.121Z,63.57
2023-01-28T18:13:55.353Z,65.60
2023-01-28T18:16:20.768Z,66.97
2023-01-28T18:18:46.234Z,65.10
2023-01-28T18:21:20.940Z,66.60
2023-01-28T18:23:44.860Z,64.70
2023-01-28T18:26:08.073Z,74.30
2023-01-28T18:28:31.811Z,63.20
2023-01-28T18:30:55.472Z,71.40
2023-01-28T18:33:18.909Z,66.10
2023-01-28T18:35:45.185Z,71.30
2023-01-28T18:38:08.424Z,65.03
2023-01-28T18:40:31.706Z,76.83
2023-01-28T18:42:55.052Z,70.00
2023-01-28T18:45:18.498Z,75.77
2023-01-28T18:47:41.735Z,73.37
2023-01-28T18:50:06.230Z,72.10
2023-01-28T18:52:30.841Z,75.77
2023-01-28T18:54:54.335Z,78.27
2023-01-28T18:57:17.562Z,74.87
2023-01-28T18:59:40.807Z,77.23
2023-01-28T19:02:04.042Z,75.00
2023-01-28T19:04:27.411Z,74.23
2023-01-28T19:06:50.838Z,74.57
2023-01-28T19:09:17.640Z,78.83
2023-01-28T19:11:41.794Z,83.43
2023-01-28T19:14:05.169Z,74.13
2023-01-28T19:16:28.713Z,70.97
2023-01-28T19:18:54.375Z,75.53
2023-01-28T19:21:17.734Z,73.43
2023-01-28T19:23:49.571Z,79.50
2023-01-28T19:26:20.810Z,79.87
2023-01-28T19:28:44.183Z,68.80
2023-01-28T19:31:07.478Z,68.33
2023-01-28T19:33:30.767Z,72.17
2023-01-28T19:35:57.938Z,66.53
2023-01-28T19:38:21.284Z,66.30
2023-01-28T19:40:44.471Z,74.10
2023-01-28T19:43:09.169Z,74.40
2023-01-28T19:45:32.421Z,73.50
2023-01-28T19:47:55.790Z,75.37
2023-01-28T19:50:19.253Z,73.50
2023-01-28T19:52:42.634Z,71.13
2023-01-28T19:55:07.573Z,68.20
2023-01-28T19:57:31.062Z,64.23
2023-01-28T19:59:55.759Z,66.23
2023-01-28T20:02:19.013Z,66.33
2023-01-28T20:04:54.882Z,68.33
2023-01-28T20:07:23.563Z,72.83
2023-01-28T20:09:47.048Z,76.97
2023-01-28T20:12:11.951Z,77.43
2023-01-28T20:14:35.155Z,78.20
2023-01-28T20:17:00.145Z,79.70
2023-01-28T20:19:23.481Z,75.23
2023-01-28T20:21:47.719Z,82.63
2023-01-28T20:24:13.821Z,82.27
2023-01-28T20:26:38.839Z,76.53
2023-01-28T20:29:03.039Z,84.80
2023-01-28T20:31:26.380Z,85.33
2023-01-28T20:33:51.465Z,83.10
2023-01-28T20:36:15.646Z,80.87
2023-01-28T20:38:40.306Z,89.20
2023-01-28T20:41:07.645Z,89.17
2023-01-28T20:43:30.854Z,80.83
2023-01-28T20:45:55.887Z,83.00
2023-01-28T20:48:19.241Z,78.83
2023-01-28T20:50:43.893Z,91.47
2023-01-28T20:53:07.257Z,84.00
2023-01-28T20:55:30.627Z,83.83
2023-01-28T20:57:54.241Z,85.50
2023-01-28T21:00:18.694Z,77.13
2023-01-28T21:02:44.240Z,78.33
2023-01-28T21:05:09.017Z,80.90
2023-01-28T21:07:33.761Z,84.93
2023-01-28T21:09:57.556Z,87.30
2023-01-28T21:12:20.814Z,88.83
2023-01-28T21:14:44.059Z,93.57
2023-01-28T21:17:07.737Z,79.83
2023-01-28T21:19:31.034Z,80.77
2023-01-28T21:21:54.374Z,85.20
2023-01-28T21:24:19.125Z,86.00
2023-01-28T21:26:42.368Z,82.23
2023-01-28T21:29:05.738Z,87.40
2023-01-28T21:31:29.077Z,81.17
2023-01-28T21:33:54.899Z,78.40
2023-01-28T21:36:19.189Z,86.87
2023-01-28T21:38:43.020Z,79.87
2023-01-28T21:41:08.660Z,79.27
2023-01-28T21:43:32.396Z,73.93
2023-01-28T21:45:59.410Z,77.47
2023-01-28T21:48:22.723Z,77.70
2023-01-28T21:50:59.895Z,74.13
2023-01-28T21:53:23.168Z,78.40
2023-01-28T21:55:49.053Z,74.10
2023-01-28T21:58:31.633Z,79.60
2023-01-28T22:00:55.025Z,81.00
2023-01-28T22:03:18.443Z,73.53
2023-01-28T22:05:41.761Z,83.80
2023-01-28T22:08:05.137Z,80.70
2023-01-28T22:10:28.425Z,80.00
2023-01-28T22:12:51.665Z,81.50
2023-01-28T22:15:16.403Z,80.53
2023-01-28T22:17:39.797Z,74.97
2023-01-28T22:20:03.288Z,80.07
2023-01-28T22:22:26.705Z,85.13
2023-01-28T22:24:49.889Z,82.17
2023-01-28T22:27:14.067Z,83.60
2023-01-28T22:29:37.483Z,84.83
2023-01-28T22:32:04.122Z,83.77
2023-01-28T22:34:28.429Z,91.73
2023-01-28T22:36:52.296Z,91.50
2023-01-28T22:39:17.499Z,94.37
2023-01-28T22:41:41.484Z,90.10
2023-01-28T22:44:04.851Z,90.87
2023-01-28T22:46:28.983Z,87.73
2023-01-28T22:48:53.778Z,84.93
2023-01-28T22:51:20.047Z,90.67
2023-01-28T22:53:43.644Z,89.77
2023-01-28T22:56:08.213Z,94.60
2023-01-28T22:58:32.123Z,93.27
2023-01-28T23:00:56.347Z,99.07
2023-01-28T23:03:19.936Z,92.07
2023-01-28T23:05:44.976Z,95.40
2023-01-28T23:08:11.327Z,98.60
2023-01-28T23:10:34.551Z,116.87
2023-01-28T23:12:58.258Z,124.37
2023-01-28T23:15:41.340Z,103.00
2023-01-28T23:18:22.455Z,88.90
2023-01-28T23:21:04.548Z,77.37
2023-01-28T23:23:45.346Z,80.13
2023-01-28T23:26:08.699Z,78.40
2023-01-28T23:28:32.018Z,77.73
2023-01-28T23:30:56.007Z,73.30
2023-01-28T23:33:19.451Z,79.23
2023-01-28T23:35:43.046Z,76.37
2023-01-28T23:38:07.755Z,80.97
2023-01-28T23:40:31.130Z,97.93
2023-01-28T23:42:56.432Z,90.67
2023-01-28T23:45:19.907Z,95.43
2023-01-28T23:47:43.247Z,84.07
2023-01-28T23:50:07.203Z,84.70
2023-01-28T23:52:30.600Z,90.77
2023-01-28T23:54:55.653Z,82.50
2023-01-28T23:57:19.100Z,77.57
2023-01-28T23:59:42.695Z,80.13
